createdAt,value
2023-05-19T00:01:48.599Z,8.44
2023-05-19T00:04:15.633Z,8.40
2023-05-19T00:06:42.587Z,8.36
2023-05-19T00:09:10.347Z,8.31
2023-05-19T00:11:38.472Z,8.26
2023-05-19T00:14:07.847Z,8.22
2023-05-19T00:16:34.931Z,8.20
2023-05-19T00:19:03.609Z,8.17
2023-05-19T00:21:31.361Z,8.15
2023-05-19T00:23:58.197Z,8.12
2023-05-19T00:26:27.063Z,8.10
2023-05-19T00:28:54.021Z,8.07
2023-05-19T00:31:20.741Z,8.08
2023-05-19T00:33:47.363Z,8.08
2023-05-19T00:36:13.876Z,8.05
2023-05-19T00:38:40.546Z,8.06
2023-05-19T00:41:07.319Z,8.05
2023-05-19T00:43:36.392Z,8.03
2023-05-19T00:46:03.474Z,8.08
2023-05-19T00:48:30.036Z,8.05
2023-05-19T00:51:02.341Z,8.03
2023-05-19T00:53:29.426Z,8.01
2023-05-19T00:55:56.511Z,7.99
2023-05-19T00:58:25.581Z,7.96
2023-05-19T01:00:52.427Z,7.92
2023-05-19T01:03:20.408Z,7.91
2023-05-19T01:05:47.642Z,7.92
2023-05-19T01:08:14.210Z,7.90
2023-05-19T01:10:40.845Z,7.86
2023-05-19T01:13:08.360Z,7.77
2023-05-19T01:15:59.369Z,7.79
2023-05-19T01:18:36.847Z,7.80
2023-05-19T01:21:19.176Z,7.75
2023-05-19T01:24:09.090Z,7.73
2023-05-19T01:27:17.007Z,7.69
2023-05-19T01:30:11.834Z,7.68
2023-05-19T01:32:41.911Z,7.64
2023-05-19T01:35:09.732Z,7.62
2023-05-19T01:37:38.822Z,7.60
2023-05-19T01:40:09.925Z,7.53
2023-05-19T01:42:39.836Z,7.48
2023-05-19T01:45:10.569Z,7.42
2023-05-19T01:47:41.224Z,7.35
2023-05-19T01:50:08.094Z,7.29
2023-05-19T01:52:34.723Z,7.25
2023-05-19T01:55:01.213Z,7.27
2023-05-19T01:57:42.718Z,7.30
2023-05-19T02:00:31.320Z,7.26
2023-05-19T02:03:16.533Z,7.22
2023-05-19T02:05:55.655Z,7.21
2023-05-19T02:08:44.281Z,7.22
2023-05-19T02:11:25.811Z,7.18
2023-05-19T02:13:55.738Z,7.12
2023-05-19T02:16:27.615Z,7.09
2023-05-19T02:18:55.256Z,7.05
2023-05-19T02:21:21.783Z,7.04
2023-05-19T02:23:49.019Z,7.00
2023-05-19T02:26:15.551Z,6.98
2023-05-19T02:28:42.097Z,7.01
2023-05-19T02:31:10.088Z,6.99
2023-05-19T02:33:37.441Z,7.02
2023-05-19T02:36:04.456Z,7.02
2023-05-19T02:38:31.018Z,7.01
2023-05-19T02:40:57.498Z,7.08
2023-05-19T02:43:23.931Z,7.10
2023-05-19T02:45:50.512Z,7.11
2023-05-19T02:48:17.010Z,7.10
2023-05-19T02:50:43.607Z,7.09
2023-05-19T02:53:10.323Z,7.03
2023-05-19T02:55:37.304Z,7.02
2023-05-19T02:58:04.139Z,6.98
2023-05-19T03:00:30.784Z,6.94
2023-05-19T03:03:02.700Z,6.93
2023-05-19T03:05:30.367Z,6.97
2023-05-19T03:07:56.972Z,7.02
2023-05-19T03:10:23.593Z,7.02
2023-05-19T03:12:50.041Z,7.05
2023-05-19T03:15:16.663Z,7.06
2023-05-19T03:17:43.386Z,7.05
2023-05-19T03:20:10.865Z,7.05
2023-05-19T03:22:37.372Z,7.09
2023-05-19T03:25:04.239Z,7.11
2023-05-19T03:27:30.746Z,7.12
2023-05-19T03:29:57.253Z,7.14
2023-05-19T03:32:23.928Z,7.18
2023-05-19T03:34:50.728Z,7.24
2023-05-19T03:37:17.258Z,7.29
2023-05-19T03:39:43.803Z,7.35
2023-05-19T03:42:10.457Z,7.42
2023-05-19T03:44:36.917Z,7.51
2023-05-19T03:47:03.484Z,7.60
2023-05-19T03:49:29.987Z,7.69
2023-05-19T03:51:56.494Z,7.79
2023-05-19T03:54:23.292Z,7.90
2023-05-19T03:56:49.969Z,8.03
2023-05-19T03:59:16.581Z,8.16
2023-05-19T04:01:43.138Z,8.30
2023-05-19T04:04:09.700Z,8.43
2023-05-19T04:06:36.278Z,8.56
2023-05-19T04:09:05.120Z,8.73
2023-05-19T04:11:31.773Z,8.88
2023-05-19T04:13:58.279Z,9.06
2023-05-19T04:16:24.992Z,9.22
2023-05-19T04:18:51.824Z,9.41
2023-05-19T04:21:18.480Z,9.62
2023-05-19T04:23:45.030Z,9.93
2023-05-19T04:26:12.287Z,10.13
2023-05-19T04:28:42.283Z,10.32
2023-05-19T04:31:12.840Z,10.56
2023-05-19T04:33:40.363Z,10.79
2023-05-19T04:36:11.468Z,10.95
2023-05-19T04:38:39.922Z,11.13
2023-05-19T04:41:10.623Z,11.36
2023-05-19T04:43:41.496Z,11.46
2023-05-19T04:46:12.315Z,11.61
2023-05-19T04:48:42.823Z,11.73
2023-05-19T04:51:09.526Z,11.83
2023-05-19T04:53:36.639Z,11.93
2023-05-19T04:56:03.589Z,12.06
2023-05-19T04:58:30.238Z,12.09
2023-05-19T05:00:57.829Z,12.28
2023-05-19T05:03:25.177Z,12.40
2023-05-19T05:05:52.331Z,12.76
2023-05-19T05:08:24.851Z,13.08
2023-05-19T05:10:55.429Z,13.50
2023-05-19T05:13:23.937Z,13.70
2023-05-19T05:15:52.197Z,13.67
2023-05-19T05:18:19.124Z,13.63
2023-05-19T05:20:46.928Z,13.55
2023-05-19T05:23:14.638Z,13.54
2023-05-19T05:25:42.052Z,13.51
2023-05-19T05:28:08.839Z,13.59
2023-05-19T05:30:35.775Z,13.86
2023-05-19T05:33:03.248Z,14.68
2023-05-19T05:35:29.951Z,15.34
2023-05-19T05:37:56.522Z,15.90
2023-05-19T05:40:23.173Z,15.78
2023-05-19T05:42:49.792Z,15.94
2023-05-19T05:45:16.357Z,15.98
2023-05-19T05:47:43.201Z,16.28
2023-05-19T05:50:10.844Z,16.64
2023-05-19T05:52:38.243Z,16.63
2023-05-19T05:55:05.661Z,16.29
2023-05-19T05:57:35.328Z,16.05
2023-05-19T06:00:02.320Z,15.85
2023-05-19T06:02:29.919Z,15.86
2023-05-19T06:04:56.541Z,16.02
2023-05-19T06:07:24.256Z,16.08
2023-05-19T06:09:50.828Z,16.06
2023-05-19T06:12:17.994Z,15.93
2023-05-19T06:14:44.566Z,15.88
2023-05-19T06:17:11.207Z,15.64
2023-05-19T06:19:37.678Z,15.22
2023-05-19T06:22:04.287Z,15.07
2023-05-19T06:24:30.947Z,15.11
2023-05-19T06:26:57.510Z,15.02
2023-05-19T06:29:24.026Z,15.01
2023-05-19T06:31:50.710Z,14.68
2023-05-19T06:34:17.924Z,14.39
2023-05-19T06:36:44.500Z,14.25
2023-05-19T06:39:11.041Z,14.21
2023-05-19T06:41:37.571Z,14.05
2023-05-19T06:44:04.437Z,13.84
2023-05-19T06:46:31.218Z,13.88
2023-05-19T06:48:57.859Z,14.04
2023-05-19T06:51:24.387Z,14.04
2023-05-19T06:53:50.946Z,14.16
2023-05-19T06:56:18.913Z,14.12
2023-05-19T06:58:45.763Z,14.06
2023-05-19T07:01:12.323Z,14.12
2023-05-19T07:03:39.213Z,14.21
2023-05-19T07:06:08.081Z,14.41
2023-05-19T07:08:37.052Z,14.47
2023-05-19T07:11:03.826Z,14.55
2023-05-19T07:13:30.271Z,14.57
2023-05-19T07:15:56.954Z,14.69
2023-05-19T07:18:23.474Z,14.60
2023-05-19T07:20:52.189Z,14.50
2023-05-19T07:23:18.748Z,14.25
2023-05-19T07:25:45.273Z,14.58
2023-05-19T07:28:11.897Z,14.90
2023-05-19T07:30:39.037Z,15.04
2023-05-19T07:33:05.684Z,14.91
2023-05-19T07:35:32.688Z,14.88
2023-05-19T07:37:59.303Z,14.67
2023-05-19T07:40:26.052Z,14.57
2023-05-19T07:42:52.659Z,14.76
2023-05-19T07:45:19.165Z,15.01
2023-05-19T07:47:45.879Z,15.31
2023-05-19T07:50:12.430Z,15.45
2023-05-19T07:52:39.019Z,15.69
2023-05-19T07:55:06.032Z,15.66
2023-05-19T07:57:32.543Z,15.66
2023-05-19T07:59:59.048Z,15.53
2023-05-19T08:02:25.780Z,15.47
2023-05-19T08:04:53.192Z,15.56
2023-05-19T08:07:19.745Z,15.52
2023-05-19T08:09:46.303Z,15.60
2023-05-19T08:12:12.864Z,15.76
2023-05-19T08:14:39.374Z,16.09
2023-05-19T08:17:06.520Z,16.34
2023-05-19T08:19:33.025Z,16.44
2023-05-19T08:22:01.201Z,16.52
2023-05-19T08:24:32.795Z,16.74
2023-05-19T08:26:59.604Z,16.63
2023-05-19T08:29:26.236Z,17.01
2023-05-19T08:31:53.474Z,17.22
2023-05-19T08:34:20.803Z,17.47
2023-05-19T08:36:47.709Z,17.60
2023-05-19T08:39:16.199Z,17.41
2023-05-19T08:41:42.713Z,17.70
2023-05-19T08:44:09.716Z,17.72
2023-05-19T08:46:36.584Z,17.80
2023-05-19T08:49:10.280Z,18.06
2023-05-19T08:51:50.042Z,18.49
2023-05-19T08:54:18.100Z,18.32
2023-05-19T08:56:45.716Z,18.37
2023-05-19T08:59:15.270Z,18.52
2023-05-19T09:01:45.996Z,18.44
2023-05-19T09:04:13.446Z,18.56
2023-05-19T09:06:42.468Z,18.74
2023-05-19T09:09:09.332Z,18.61
2023-05-19T09:11:37.582Z,18.64
2023-05-19T09:14:05.274Z,18.32
2023-05-19T09:16:33.843Z,18.36
2023-05-19T09:19:03.275Z,18.27
2023-05-19T09:21:33.621Z,18.10
2023-05-19T09:24:07.915Z,18.16
2023-05-19T09:26:38.684Z,18.08
2023-05-19T09:29:29.055Z,17.96
2023-05-19T09:32:01.062Z,17.83
2023-05-19T09:34:28.034Z,17.67
2023-05-19T09:36:54.850Z,17.50
2023-05-19T09:39:23.047Z,17.35
2023-05-19T09:41:58.685Z,17.28
2023-05-19T09:44:30.403Z,17.19
2023-05-19T09:46:58.841Z,16.94
2023-05-19T09:49:29.466Z,16.86
2023-05-19T09:52:02.208Z,16.68
2023-05-19T09:54:32.106Z,16.28
2023-05-19T09:56:59.860Z,15.94
2023-05-19T09:59:29.753Z,15.88
2023-05-19T10:01:59.498Z,15.99
2023-05-19T10:04:29.692Z,16.25
2023-05-19T10:07:01.037Z,16.24
2023-05-19T10:09:29.437Z,16.44
2023-05-19T10:11:57.912Z,16.61
2023-05-19T10:14:26.318Z,16.76
2023-05-19T10:16:57.728Z,16.75
2023-05-19T10:19:26.189Z,16.57
2023-05-19T10:21:53.419Z,16.42
2023-05-19T10:24:21.320Z,16.18
2023-05-19T10:26:56.406Z,16.08
2023-05-19T10:29:29.663Z,15.95
2023-05-19T10:32:01.156Z,15.92
2023-05-19T10:34:37.498Z,15.78
2023-05-19T10:37:22.442Z,15.58
2023-05-19T10:39:51.331Z,15.37
2023-05-19T10:42:33.478Z,15.42
2023-05-19T10:45:12.261Z,15.59
2023-05-19T10:47:44.082Z,15.57
2023-05-19T10:50:11.141Z,15.58
2023-05-19T10:52:39.697Z,15.44
2023-05-19T10:55:15.796Z,15.22
2023-05-19T10:57:54.243Z,14.96
2023-05-19T11:00:28.548Z,14.82
2023-05-19T11:03:18.631Z,14.65
2023-05-19T11:05:45.441Z,14.68
2023-05-19T11:08:13.009Z,14.72
2023-05-19T11:10:39.626Z,14.91
2023-05-19T11:13:06.785Z,15.14
2023-05-19T11:15:39.315Z,15.40
2023-05-19T11:18:06.301Z,15.72
2023-05-19T11:20:34.927Z,16.06
2023-05-19T11:23:08.606Z,16.52
2023-05-19T11:25:46.978Z,16.97
2023-05-19T11:28:29.255Z,17.50
2023-05-19T11:30:59.035Z,18.03
2023-05-19T11:33:29.057Z,18.20
2023-05-19T11:36:00.237Z,18.38
2023-05-19T11:38:28.593Z,18.69
2023-05-19T11:40:56.265Z,18.43
2023-05-19T11:43:24.392Z,18.59
2023-05-19T11:45:51.246Z,18.11
2023-05-19T11:48:21.114Z,18.05
2023-05-19T11:50:47.818Z,18.05
2023-05-19T11:53:16.398Z,18.34
2023-05-19T11:55:47.580Z,18.53
2023-05-19T11:58:14.856Z,18.59
2023-05-19T12:00:43.115Z,18.67
2023-05-19T12:03:10.063Z,18.65
2023-05-19T12:05:42.933Z,18.12
2023-05-19T12:08:11.495Z,17.58
2023-05-19T12:10:39.539Z,17.50
2023-05-19T12:13:10.301Z,17.43
2023-05-19T12:15:37.960Z,17.20
2023-05-19T12:18:04.614Z,16.69
2023-05-19T12:20:32.885Z,16.14
2023-05-19T12:23:00.799Z,15.82
2023-05-19T12:25:29.390Z,15.82
2023-05-19T12:28:05.943Z,15.93
2023-05-19T12:30:33.670Z,15.87
2023-05-19T12:33:02.224Z,15.65
2023-05-19T12:35:33.228Z,15.61
2023-05-19T12:38:04.732Z,15.55
2023-05-19T12:40:31.916Z,15.50
2023-05-19T12:43:01.511Z,15.60
2023-05-19T12:45:28.763Z,15.65
2023-05-19T12:47:56.022Z,15.65
2023-05-19T12:50:31.257Z,15.61
2023-05-19T12:52:59.886Z,15.58
2023-05-19T12:55:26.725Z,15.53
2023-05-19T12:57:59.229Z,15.39
2023-05-19T13:00:28.698Z,15.47
2023-05-19T13:03:06.585Z,15.31
2023-05-19T13:05:38.857Z,15.29
2023-05-19T13:08:08.100Z,15.19
2023-05-19T13:10:36.438Z,15.16
2023-05-19T13:13:05.148Z,15.15
2023-05-19T13:15:37.765Z,15.06
2023-05-19T13:18:06.739Z,15.07
2023-05-19T13:20:34.281Z,15.19
2023-05-19T13:23:01.558Z,15.18
2023-05-19T13:25:28.314Z,15.15
2023-05-19T13:27:55.318Z,14.94
2023-05-19T13:30:22.689Z,15.03
2023-05-19T13:32:49.279Z,15.01
2023-05-19T13:35:15.999Z,15.03
2023-05-19T13:37:42.888Z,15.14
2023-05-19T13:40:09.947Z,15.34
2023-05-19T13:42:36.708Z,15.56
2023-05-19T13:45:03.982Z,15.69
2023-05-19T13:47:30.806Z,15.73
2023-05-19T13:49:57.664Z,15.67
2023-05-19T13:52:24.298Z,15.61
2023-05-19T13:54:51.046Z,15.68
2023-05-19T13:57:18.234Z,15.77
2023-05-19T13:59:57.649Z,15.81
2023-05-19T14:02:28.338Z,15.79
2023-05-19T14:04:55.998Z,15.83
2023-05-19T14:07:22.753Z,15.86
2023-05-19T14:09:51.238Z,15.92
2023-05-19T14:12:25.531Z,15.68
2023-05-19T14:15:02.167Z,15.75
2023-05-19T14:17:29.088Z,15.50
2023-05-19T14:19:56.250Z,15.31
2023-05-19T14:22:22.851Z,15.12
2023-05-19T14:24:49.479Z,14.83
2023-05-19T14:27:16.083Z,14.80
2023-05-19T14:29:42.923Z,14.64
2023-05-19T14:32:09.486Z,14.64
2023-05-19T14:34:36.230Z,14.73
2023-05-19T14:37:02.862Z,14.75
2023-05-19T14:39:31.176Z,14.81
2023-05-19T14:41:59.528Z,14.76
2023-05-19T14:44:30.836Z,14.56
2023-05-19T14:46:57.414Z,14.43
2023-05-19T14:49:23.912Z,14.36
2023-05-19T14:51:50.683Z,14.26
2023-05-19T14:54:17.210Z,14.15
2023-05-19T14:56:44.302Z,14.10
2023-05-19T14:59:10.838Z,14.10
2023-05-19T15:01:37.647Z,14.03
2023-05-19T15:04:04.504Z,14.00
2023-05-19T15:06:31.131Z,13.89
2023-05-19T15:08:57.603Z,13.87
2023-05-19T15:11:24.131Z,13.74
2023-05-19T15:13:50.686Z,13.84
2023-05-19T15:16:18.376Z,13.75
2023-05-19T15:18:45.490Z,13.83
2023-05-19T15:21:12.682Z,13.83
2023-05-19T15:23:39.279Z,13.92
2023-05-19T15:26:05.966Z,13.94
2023-05-19T15:28:33.555Z,13.91
2023-05-19T15:31:00.653Z,13.97
2023-05-19T15:33:27.288Z,13.95
2023-05-19T15:35:54.339Z,13.87
2023-05-19T15:38:20.923Z,13.85
2023-05-19T15:40:48.073Z,13.74
2023-05-19T15:43:14.775Z,13.68
2023-05-19T15:45:41.529Z,13.56
2023-05-19T15:48:08.628Z,13.57
2023-05-19T15:50:36.117Z,13.54
2023-05-19T15:53:03.458Z,13.54
2023-05-19T15:55:30.163Z,13.53
2023-05-19T15:57:57.158Z,13.58
2023-05-19T16:00:23.772Z,13.58
2023-05-19T16:02:50.784Z,13.58
2023-05-19T16:05:17.818Z,13.60
2023-05-19T16:07:44.378Z,13.62
2023-05-19T16:10:11.306Z,13.62
2023-05-19T16:12:37.792Z,13.61
2023-05-19T16:15:04.781Z,13.61
2023-05-19T16:17:31.503Z,13.67
2023-05-19T16:19:58.066Z,13.46
2023-05-19T16:22:25.439Z,13.44
2023-05-19T16:24:52.451Z,13.37
2023-05-19T16:27:19.185Z,13.43
2023-05-19T16:29:45.909Z,13.40
2023-05-19T16:32:12.950Z,13.34
2023-05-19T16:34:39.919Z,13.37
2023-05-19T16:37:06.522Z,13.43
2023-05-19T16:39:36.266Z,13.50
2023-05-19T16:42:06.231Z,13.47
2023-05-19T16:44:32.839Z,13.43
2023-05-19T16:47:00.067Z,13.37
2023-05-19T16:49:26.799Z,13.25
2023-05-19T16:51:54.249Z,13.13
2023-05-19T16:54:21.364Z,13.07
2023-05-19T16:56:47.958Z,13.06
2023-05-19T16:59:14.572Z,12.99
2023-05-19T17:01:41.345Z,12.97
2023-05-19T17:04:08.217Z,13.02
2023-05-19T17:06:34.899Z,12.98
2023-05-19T17:09:01.999Z,12.91
2023-05-19T17:11:28.558Z,12.96
2023-05-19T17:13:55.026Z,12.90
2023-05-19T17:16:21.698Z,12.90
2023-05-19T17:18:48.350Z,12.93
2023-05-19T17:21:14.961Z,12.94
2023-05-19T17:23:41.893Z,12.92
2023-05-19T17:26:09.033Z,12.85
2023-05-19T17:28:35.777Z,12.78
2023-05-19T17:31:10.684Z,12.76
2023-05-19T17:33:37.398Z,12.81
2023-05-19T17:36:04.905Z,12.79
2023-05-19T17:38:32.454Z,12.78
2023-05-19T17:40:59.690Z,12.77
2023-05-19T17:43:26.962Z,12.74
2023-05-19T17:45:54.514Z,12.69
2023-05-19T17:48:21.139Z,12.71
2023-05-19T17:50:48.553Z,12.66
2023-05-19T17:53:16.117Z,12.65
2023-05-19T17:55:50.268Z,12.65
2023-05-19T17:58:18.183Z,12.67
2023-05-19T18:00:46.628Z,12.60
2023-05-19T18:03:13.683Z,12.60
2023-05-19T18:05:41.209Z,12.50
2023-05-19T18:08:09.316Z,12.44
2023-05-19T18:10:37.743Z,12.40
2023-05-19T18:13:05.342Z,12.37
2023-05-19T18:15:32.083Z,12.33
2023-05-19T18:17:59.117Z,12.34
2023-05-19T18:20:25.690Z,12.26
2023-05-19T18:22:52.197Z,12.28
2023-05-19T18:25:19.982Z,12.28
2023-05-19T18:27:47.458Z,12.26
2023-05-19T18:30:13.996Z,12.26
2023-05-19T18:32:40.668Z,12.29
2023-05-19T18:35:08.568Z,12.26
2023-05-19T18:37:35.730Z,12.25
2023-05-19T18:40:02.322Z,12.23
2023-05-19T18:42:32.205Z,12.20
2023-05-19T18:44:59.530Z,12.25
2023-05-19T18:47:26.182Z,12.22
2023-05-19T18:49:53.135Z,12.19
2023-05-19T18:52:21.843Z,12.21
2023-05-19T18:54:48.785Z,12.18
2023-05-19T18:57:15.372Z,12.15
2023-05-19T18:59:42.443Z,12.18
2023-05-19T19:02:09.015Z,12.15
2023-05-19T19:04:38.395Z,12.17
2023-05-19T19:07:08.608Z,12.18
2023-05-19T19:09:35.652Z,12.15
2023-05-19T19:12:02.157Z,12.16
2023-05-19T19:14:28.646Z,12.14
2023-05-19T19:16:55.292Z,12.14
2023-05-19T19:19:23.741Z,12.11
2023-05-19T19:21:50.795Z,12.15
2023-05-19T19:24:17.305Z,12.09
2023-05-19T19:26:44.374Z,12.10
2023-05-19T19:29:11.077Z,12.09
2023-05-19T19:31:38.444Z,12.08
2023-05-19T19:34:09.125Z,12.09
2023-05-19T19:36:36.237Z,12.08
2023-05-19T19:39:02.933Z,12.08
2023-05-19T19:41:30.241Z,12.08
2023-05-19T19:43:56.904Z,12.09
2023-05-19T19:46:23.683Z,12.08
2023-05-19T19:48:51.209Z,12.03
2023-05-19T19:51:17.870Z,11.99
2023-05-19T19:53:44.555Z,12.01
2023-05-19T19:56:11.245Z,11.99
2023-05-19T19:58:37.881Z,11.96
2023-05-19T20:01:06.045Z,11.99
2023-05-19T20:03:33.346Z,11.99
2023-05-19T20:06:00.006Z,11.99
2023-05-19T20:08:27.055Z,11.99
2023-05-19T20:10:53.748Z,11.96
2023-05-19T20:13:20.959Z,11.95
2023-05-19T20:15:47.599Z,11.95
2023-05-19T20:18:14.403Z,11.93
2023-05-19T20:20:41.697Z,11.96
2023-05-19T20:23:08.783Z,11.93
2023-05-19T20:25:53.686Z,11.89
2023-05-19T20:28:26.140Z,11.89
2023-05-19T20:30:52.722Z,11.88
2023-05-19T20:33:22.588Z,11.86
2023-05-19T20:35:49.387Z,11.81
2023-05-19T20:38:16.010Z,11.81
2023-05-19T20:40:43.607Z,11.82
2023-05-19T20:43:10.281Z,11.81
2023-05-19T20:45:37.415Z,11.84
2023-05-19T20:48:04.742Z,11.82
2023-05-19T20:50:31.937Z,11.83
2023-05-19T20:52:59.132Z,11.85
2023-05-19T20:55:26.010Z,11.85
2023-05-19T20:57:52.818Z,11.81
2023-05-19T21:00:19.340Z,11.79
2023-05-19T21:02:46.074Z,11.82
2023-05-19T21:05:12.828Z,11.79
2023-05-19T21:07:39.609Z,11.78
2023-05-19T21:10:06.995Z,11.78
2023-05-19T21:12:34.271Z,11.80
2023-05-19T21:15:03.498Z,11.79
2023-05-19T21:17:30.136Z,11.78
2023-05-19T21:19:57.802Z,11.77
2023-05-19T21:22:25.387Z,11.73
2023-05-19T21:24:52.246Z,11.75
2023-05-19T21:27:18.889Z,11.77
2023-05-19T21:29:45.394Z,11.75
2023-05-19T21:32:12.000Z,11.80
2023-05-19T21:34:39.086Z,11.78
2023-05-19T21:37:06.095Z,11.80
2023-05-19T21:39:32.585Z,11.80
2023-05-19T21:41:59.375Z,11.80
2023-05-19T21:44:26.419Z,11.81
2023-05-19T21:46:53.116Z,11.79
2023-05-19T21:49:20.305Z,11.77
2023-05-19T21:51:46.849Z,11.80
2023-05-19T21:54:13.448Z,11.77
2023-05-19T21:56:40.023Z,11.77
2023-05-19T21:59:06.894Z,11.70
2023-05-19T22:01:33.793Z,11.69
2023-05-19T22:04:00.445Z,11.71
2023-05-19T22:06:27.081Z,11.71
2023-05-19T22:08:53.852Z,11.73
2023-05-19T22:11:21.388Z,11.73
2023-05-19T22:13:47.875Z,11.75
2023-05-19T22:16:14.554Z,11.72
2023-05-19T22:18:41.152Z,11.71
2023-05-19T22:21:08.052Z,11.73
2023-05-19T22:23:34.610Z,11.69
2023-05-19T22:26:01.240Z,11.70
2023-05-19T22:28:27.779Z,11.69
2023-05-19T22:30:54.305Z,11.72
2023-05-19T22:33:20.899Z,11.70
2023-05-19T22:35:47.462Z,11.62
2023-05-19T22:38:14.092Z,11.65
2023-05-19T22:40:40.849Z,11.62
2023-05-19T22:43:07.369Z,11.57
2023-05-19T22:45:36.169Z,11.62
2023-05-19T22:48:03.123Z,11.58
2023-05-19T22:50:29.806Z,11.58
2023-05-19T22:52:56.348Z,11.55
2023-05-19T22:55:22.865Z,11.54
2023-05-19T22:57:49.473Z,11.57
2023-05-19T23:00:18.652Z,11.55
2023-05-19T23:02:45.404Z,11.55
2023-05-19T23:05:11.938Z,11.57
2023-05-19T23:07:38.546Z,11.56
2023-05-19T23:10:07.410Z,11.55
2023-05-19T23:12:34.016Z,11.54
2023-05-19T23:15:00.752Z,11.54
2023-05-19T23:17:27.526Z,11.54
2023-05-19T23:19:54.072Z,11.52
2023-05-19T23:22:20.629Z,11.53
2023-05-19T23:24:47.270Z,11.50
2023-05-19T23:27:13.789Z,11.50
2023-05-19T23:29:40.363Z,11.50
2023-05-19T23:32:07.264Z,11.46
2023-05-19T23:34:33.810Z,11.46
2023-05-19T23:37:00.342Z,11.47
2023-05-19T23:39:27.577Z,11.45
2023-05-19T23:41:54.137Z,11.46
2023-05-19T23:44:20.649Z,11.45
2023-05-19T23:46:47.204Z,11.42
2023-05-19T23:49:14.474Z,11.41
2023-05-19T23:51:41.378Z,11.38
2023-05-19T23:54:07.892Z,11.38
2023-05-19T23:56:34.498Z,11.39
2023-05-19T23:59:01.078Z,11.42
